createdAt,value
2022-08-26T00:01:56.862Z,14.10
2022-08-26T00:04:25.636Z,14.93
2022-08-26T00:06:55.601Z,14.25
2022-08-26T00:09:24.625Z,16.92
2022-08-26T00:11:52.521Z,14.75
2022-08-26T00:14:19.514Z,13.73
2022-08-26T00:16:47.262Z,14.13
2022-08-26T00:19:18.383Z,14.02
2022-08-26T00:21:46.239Z,13.27
2022-08-26T00:24:15.903Z,14.13
2022-08-26T00:26:42.693Z,13.95
2022-08-26T00:29:10.086Z,13.77
2022-08-26T00:31:37.918Z,15.43
2022-08-26T00:34:06.122Z,15.93
2022-08-26T00:36:32.941Z,16.63
2022-08-26T00:38:59.767Z,15.43
2022-08-26T00:41:28.994Z,13.73
2022-08-26T00:43:56.122Z,14.20
2022-08-26T00:46:31.777Z,13.82
2022-08-26T00:49:22.106Z,13.32
2022-08-26T00:51:54.671Z,13.77
2022-08-26T00:54:26.949Z,14.07
2022-08-26T00:57:08.754Z,14.55
2022-08-26T00:59:46.515Z,14.90
2022-08-26T01:02:20.817Z,14.60
2022-08-26T01:04:55.911Z,15.80
2022-08-26T01:07:26.203Z,15.77
2022-08-26T01:09:55.753Z,14.55
2022-08-26T01:12:25.075Z,14.57
2022-08-26T01:14:52.006Z,14.35
2022-08-26T01:17:19.090Z,15.02
2022-08-26T01:19:50.165Z,14.55
2022-08-26T01:22:26.642Z,13.85
2022-08-26T01:24:59.085Z,13.43
2022-08-26T01:27:32.539Z,15.10
2022-08-26T01:30:01.681Z,13.60
2022-08-26T01:32:31.826Z,13.00
2022-08-26T01:34:59.355Z,13.45
2022-08-26T01:37:35.366Z,14.60
2022-08-26T01:40:07.792Z,14.30
2022-08-26T01:42:34.844Z,15.55
2022-08-26T01:45:15.253Z,15.00
2022-08-26T01:47:43.301Z,15.57
2022-08-26T01:50:15.744Z,14.88
2022-08-26T01:52:56.113Z,14.35
2022-08-26T01:55:32.068Z,14.05
2022-08-26T01:58:05.242Z,14.43
2022-08-26T02:00:34.381Z,13.52
2022-08-26T02:03:18.148Z,14.35
2022-08-26T02:05:59.157Z,14.07
2022-08-26T02:08:40.901Z,14.63
2022-08-26T02:11:08.618Z,13.07
2022-08-26T02:13:41.089Z,14.10
2022-08-26T02:16:09.140Z,14.80
2022-08-26T02:18:38.717Z,13.40
2022-08-26T02:21:06.938Z,14.05
2022-08-26T02:23:34.089Z,14.57
2022-08-26T02:26:01.090Z,14.65
2022-08-26T02:28:34.612Z,14.48
2022-08-26T02:31:02.659Z,13.88
2022-08-26T02:33:30.435Z,14.05
2022-08-26T02:35:57.559Z,15.70
2022-08-26T02:38:24.448Z,14.52
2022-08-26T02:40:51.255Z,14.20
2022-08-26T02:43:18.175Z,13.65
2022-08-26T02:45:50.817Z,13.98
2022-08-26T02:48:21.276Z,13.65
2022-08-26T02:50:49.157Z,12.02
2022-08-26T02:53:16.861Z,12.50
2022-08-26T02:55:51.379Z,12.27
2022-08-26T02:58:18.335Z,12.48
2022-08-26T03:00:53.435Z,12.73
2022-08-26T03:03:23.564Z,11.73
2022-08-26T03:05:54.073Z,12.25
2022-08-26T03:08:21.110Z,12.90
2022-08-26T03:10:48.366Z,12.07
2022-08-26T03:13:16.784Z,12.48
2022-08-26T03:15:44.277Z,12.07
2022-08-26T03:18:13.515Z,12.35
2022-08-26T03:20:40.611Z,13.45
2022-08-26T03:23:07.853Z,13.63
2022-08-26T03:25:36.047Z,12.27
2022-08-26T03:28:03.746Z,12.65
2022-08-26T03:30:45.142Z,12.82
2022-08-26T03:33:14.250Z,12.13
2022-08-26T03:35:43.600Z,12.50
2022-08-26T03:38:11.114Z,12.10
2022-08-26T03:40:38.762Z,12.43
2022-08-26T03:43:09.701Z,11.68
2022-08-26T03:45:37.844Z,12.57
2022-08-26T03:48:05.593Z,11.40
2022-08-26T03:50:34.317Z,11.32
2022-08-26T03:53:03.891Z,11.07
2022-08-26T03:55:32.810Z,11.95
2022-08-26T03:58:01.143Z,12.02
2022-08-26T04:00:28.959Z,11.50
2022-08-26T04:02:56.301Z,11.27
2022-08-26T04:05:23.368Z,11.02
2022-08-26T04:07:51.436Z,10.85
2022-08-26T04:10:28.962Z,10.50
2022-08-26T04:12:58.988Z,10.27
2022-08-26T04:15:26.995Z,10.60
2022-08-26T04:17:54.020Z,9.60
2022-08-26T04:20:22.790Z,10.07
2022-08-26T04:22:50.646Z,10.60
2022-08-26T04:25:18.608Z,10.07
2022-08-26T04:27:47.386Z,10.57
2022-08-26T04:30:16.641Z,10.48
2022-08-26T04:32:43.945Z,10.57
2022-08-26T04:35:10.961Z,10.10
2022-08-26T04:37:38.191Z,9.88
2022-08-26T04:40:05.954Z,10.35
2022-08-26T04:42:33.403Z,10.23
2022-08-26T04:45:01.382Z,9.30
2022-08-26T04:47:32.631Z,9.57
2022-08-26T04:50:01.948Z,9.88
2022-08-26T04:52:29.111Z,11.70
2022-08-26T04:54:57.887Z,10.82
2022-08-26T04:57:24.661Z,10.38
2022-08-26T04:59:51.454Z,10.05
2022-08-26T05:02:18.310Z,9.50
2022-08-26T05:04:45.959Z,9.52
2022-08-26T05:07:12.950Z,9.65
2022-08-26T05:09:40.802Z,9.35
2022-08-26T05:12:08.289Z,9.35
2022-08-26T05:14:36.042Z,8.85
2022-08-26T05:17:03.224Z,9.15
2022-08-26T05:19:31.671Z,9.52
2022-08-26T05:21:59.487Z,8.98
2022-08-26T05:24:26.611Z,9.63
2022-08-26T05:26:54.147Z,9.10
2022-08-26T05:29:24.137Z,9.07
2022-08-26T05:31:52.506Z,8.85
2022-08-26T05:34:20.878Z,9.45
2022-08-26T05:36:48.164Z,8.20
2022-08-26T05:39:15.227Z,8.30
2022-08-26T05:41:43.225Z,8.55
2022-08-26T05:44:14.462Z,8.23
2022-08-26T05:46:42.090Z,8.85
2022-08-26T05:49:13.123Z,8.38
2022-08-26T05:51:41.923Z,8.13
2022-08-26T05:54:10.422Z,8.25
2022-08-26T05:56:39.137Z,7.35
2022-08-26T05:59:06.549Z,7.15
2022-08-26T06:01:43.653Z,8.20
2022-08-26T06:04:11.383Z,7.20
2022-08-26T06:06:41.590Z,6.80
2022-08-26T06:09:11.451Z,6.72
2022-08-26T06:11:39.044Z,5.90
2022-08-26T06:14:07.962Z,6.68
2022-08-26T06:16:38.670Z,6.68
2022-08-26T06:19:11.462Z,6.65
2022-08-26T06:21:40.550Z,6.80
2022-08-26T06:24:29.161Z,6.82
2022-08-26T06:26:59.078Z,6.40
2022-08-26T06:29:27.830Z,6.63
2022-08-26T06:31:56.439Z,6.28
2022-08-26T06:34:29.679Z,6.00
2022-08-26T06:36:58.666Z,6.13
2022-08-26T06:39:25.631Z,6.03
2022-08-26T06:41:52.545Z,5.95
2022-08-26T06:44:20.262Z,5.95
2022-08-26T06:46:50.546Z,6.47
2022-08-26T06:49:18.322Z,5.95
2022-08-26T06:51:53.445Z,5.75
2022-08-26T06:54:20.469Z,5.75
2022-08-26T06:56:47.944Z,5.53
2022-08-26T06:59:16.097Z,5.80
2022-08-26T07:01:46.701Z,6.07
2022-08-26T07:04:20.317Z,5.43
2022-08-26T07:06:52.684Z,5.47
2022-08-26T07:09:22.433Z,5.38
2022-08-26T07:11:49.713Z,5.82
2022-08-26T07:14:19.290Z,5.00
2022-08-26T07:16:48.490Z,5.45
2022-08-26T07:19:16.650Z,5.13
2022-08-26T07:21:44.201Z,4.70
2022-08-26T07:24:11.364Z,4.95
2022-08-26T07:26:43.095Z,4.80
2022-08-26T07:29:12.572Z,5.43
2022-08-26T07:31:42.375Z,4.68
2022-08-26T07:34:13.605Z,5.50
2022-08-26T07:36:41.502Z,5.18
2022-08-26T07:39:08.942Z,5.47
2022-08-26T07:41:36.661Z,5.10
2022-08-26T07:44:04.373Z,4.68
2022-08-26T07:46:31.653Z,3.97
2022-08-26T07:48:59.142Z,4.50
2022-08-26T07:51:27.183Z,4.20
2022-08-26T07:53:55.218Z,4.45
2022-08-26T07:56:23.396Z,4.40
2022-08-26T07:58:54.020Z,4.57
2022-08-26T08:01:23.875Z,4.10
2022-08-26T08:03:51.832Z,4.30
2022-08-26T08:06:27.422Z,4.18
2022-08-26T08:08:56.252Z,4.10
2022-08-26T08:11:23.835Z,4.40
2022-08-26T08:13:56.418Z,4.22
2022-08-26T08:16:28.540Z,4.13
2022-08-26T08:18:59.563Z,3.70
2022-08-26T08:21:28.942Z,4.25
2022-08-26T08:24:01.849Z,4.10
2022-08-26T08:26:30.594Z,3.95
2022-08-26T08:28:58.150Z,4.07
2022-08-26T08:31:55.945Z,4.10
2022-08-26T08:34:15.298Z,3.67
2022-08-26T08:36:42.299Z,3.67
2022-08-26T08:39:09.481Z,4.00
2022-08-26T08:42:04.257Z,3.80
2022-08-26T08:44:31.898Z,3.63
2022-08-26T08:47:11.845Z,3.35
2022-08-26T08:49:39.326Z,3.00
2022-08-26T08:52:25.692Z,3.13
2022-08-26T08:54:55.524Z,3.05
2022-08-26T08:57:42.182Z,3.03
2022-08-26T09:00:22.407Z,3.25
2022-08-26T09:03:10.881Z,3.25
2022-08-26T09:05:48.702Z,2.78
2022-08-26T09:08:27.472Z,2.95
2022-08-26T09:10:59.435Z,3.13
2022-08-26T09:13:27.598Z,2.50
2022-08-26T09:16:10.496Z,3.00
2022-08-26T09:19:07.773Z,2.92
2022-08-26T09:21:34.597Z,2.85
2022-08-26T09:24:01.562Z,2.53
2022-08-26T09:26:40.997Z,2.88
2022-08-26T09:32:12.970Z,2.75
2022-08-26T09:35:04.683Z,2.72
2022-08-26T09:40:27.009Z,3.10
2022-08-26T09:43:22.785Z,3.63
2022-08-26T09:46:18.094Z,3.35
2022-08-26T09:48:45.542Z,3.80
2022-08-26T09:51:24.419Z,3.30
2022-08-26T09:53:54.901Z,3.63
2022-08-26T09:56:27.717Z,3.20
2022-08-26T09:58:56.787Z,3.45
2022-08-26T10:01:23.593Z,3.70
2022-08-26T10:03:51.439Z,3.33
2022-08-26T10:06:20.990Z,3.55
2022-08-26T10:09:08.921Z,3.80
2022-08-26T10:11:45.339Z,3.42
2022-08-26T10:14:24.878Z,3.63
2022-08-26T10:16:59.639Z,3.65
2022-08-26T10:19:48.285Z,3.67
2022-08-26T10:22:37.366Z,3.65
2022-08-26T10:25:08.121Z,3.50
2022-08-26T10:27:53.703Z,3.90
2022-08-26T10:30:24.681Z,3.83
2022-08-26T10:33:10.971Z,4.15
2022-08-26T10:35:52.945Z,3.75
2022-08-26T10:38:30.485Z,3.95
2022-08-26T10:41:11.354Z,3.67
2022-08-26T10:43:46.638Z,3.55
2022-08-26T10:46:23.927Z,3.38
2022-08-26T10:49:15.502Z,3.50
2022-08-26T10:51:57.947Z,3.85
2022-08-26T10:54:39.211Z,3.78
2022-08-26T10:57:15.243Z,3.33
2022-08-26T11:00:31.291Z,3.30
2022-08-26T11:03:21.898Z,3.83
2022-08-26T11:06:18.583Z,3.40
2022-08-26T11:08:50.317Z,3.97
2022-08-26T11:11:46.753Z,4.00
2022-08-26T11:14:28.693Z,3.60
2022-08-26T11:16:58.937Z,4.25
2022-08-26T11:20:01.543Z,3.72
2022-08-26T11:22:38.106Z,3.40
2022-08-26T11:25:19.829Z,2.85
2022-08-26T11:27:52.775Z,2.63
2022-08-26T11:30:20.300Z,2.97
2022-08-26T11:32:53.407Z,2.88
2022-08-26T11:35:20.556Z,3.08
2022-08-26T11:37:51.593Z,2.90
2022-08-26T11:40:22.668Z,2.60
2022-08-26T11:42:57.309Z,3.03
2022-08-26T11:45:40.068Z,3.17
2022-08-26T11:48:22.785Z,3.33
2022-08-26T11:51:03.032Z,4.38
2022-08-26T11:53:32.715Z,3.97
2022-08-26T11:56:04.454Z,4.07
2022-08-26T11:58:32.095Z,3.97
2022-08-26T12:01:09.754Z,2.90
2022-08-26T12:03:47.226Z,2.90
2022-08-26T12:06:22.854Z,2.63
2022-08-26T12:08:50.562Z,2.70
2022-08-26T12:11:27.429Z,2.80
2022-08-26T12:14:02.176Z,2.80
2022-08-26T12:16:39.494Z,2.78
2022-08-26T12:19:27.771Z,2.90
2022-08-26T12:22:02.307Z,2.75
2022-08-26T12:24:29.657Z,2.83
2022-08-26T12:27:17.664Z,3.00
2022-08-26T12:29:48.500Z,3.35
2022-08-26T12:32:18.515Z,3.20
2022-08-26T12:34:49.081Z,2.95
2022-08-26T12:37:16.564Z,3.30
2022-08-26T12:39:45.901Z,3.05
2022-08-26T12:42:12.595Z,2.78
2022-08-26T12:44:53.862Z,2.90
2022-08-26T12:47:41.950Z,2.85
2022-08-26T12:50:22.261Z,2.53
2022-08-26T12:53:05.186Z,2.40
2022-08-26T12:55:31.933Z,2.70
2022-08-26T12:58:16.710Z,2.50
2022-08-26T13:00:46.591Z,3.25
2022-08-26T13:03:28.366Z,5.28
2022-08-26T13:06:15.588Z,5.05
2022-08-26T13:08:46.018Z,3.95
2022-08-26T13:11:20.173Z,4.53
2022-08-26T13:13:53.608Z,4.82
2022-08-26T13:16:22.061Z,4.78
2022-08-26T13:18:51.870Z,5.40
2022-08-26T13:21:25.199Z,4.72
2022-08-26T13:23:52.650Z,4.68
2022-08-26T13:26:20.442Z,5.15
2022-08-26T13:28:48.623Z,4.82
2022-08-26T13:31:31.014Z,5.03
2022-08-26T13:33:58.063Z,4.90
2022-08-26T13:36:24.885Z,4.25
2022-08-26T13:38:52.048Z,5.28
2022-08-26T13:41:29.042Z,4.88
2022-08-26T13:43:56.163Z,4.35
2022-08-26T13:46:23.099Z,3.17
2022-08-26T13:48:49.863Z,3.08
2022-08-26T13:51:18.963Z,2.22
2022-08-26T13:53:46.325Z,2.40
2022-08-26T13:56:13.414Z,2.03
2022-08-26T13:58:40.338Z,1.90
2022-08-26T14:01:08.786Z,2.05
2022-08-26T14:03:36.100Z,2.10
2022-08-26T14:06:03.165Z,2.40
2022-08-26T14:08:30.811Z,1.75
2022-08-26T14:10:58.277Z,1.98
2022-08-26T14:13:25.318Z,2.00
2022-08-26T14:15:53.231Z,1.90
2022-08-26T14:18:28.066Z,2.28
2022-08-26T14:20:55.734Z,1.70
2022-08-26T14:23:22.731Z,1.77
2022-08-26T14:25:50.116Z,1.90
2022-08-26T14:28:17.376Z,1.70
2022-08-26T14:30:49.335Z,2.00
2022-08-26T14:33:17.421Z,1.60
2022-08-26T14:35:47.940Z,1.70
2022-08-26T14:38:17.268Z,1.98
2022-08-26T14:40:45.146Z,2.05
2022-08-26T14:43:15.280Z,1.90
2022-08-26T14:45:45.643Z,1.80
2022-08-26T14:48:12.573Z,1.80
2022-08-26T14:50:39.325Z,1.98
2022-08-26T14:53:24.897Z,1.98
2022-08-26T14:55:51.682Z,1.33
2022-08-26T14:58:18.549Z,2.13
2022-08-26T15:00:45.303Z,1.80
2022-08-26T15:03:12.623Z,1.95
2022-08-26T15:05:47.970Z,1.98
2022-08-26T15:08:18.902Z,1.80
2022-08-26T15:10:46.933Z,1.70
2022-08-26T15:13:13.861Z,3.97
2022-08-26T15:15:40.698Z,4.43
2022-08-26T15:18:07.939Z,4.20
2022-08-26T15:20:34.990Z,4.13
2022-08-26T15:23:06.864Z,4.65
2022-08-26T15:25:33.967Z,4.85
2022-08-26T15:28:00.874Z,3.75
2022-08-26T15:30:27.678Z,3.85
2022-08-26T15:32:54.397Z,3.67
2022-08-26T15:35:21.250Z,4.00
2022-08-26T15:37:48.318Z,4.13
2022-08-26T15:40:15.496Z,4.30
2022-08-26T15:42:42.285Z,4.60
2022-08-26T15:45:09.566Z,4.13
2022-08-26T15:48:00.733Z,4.45
2022-08-26T15:50:25.427Z,4.03
2022-08-26T15:52:52.267Z,4.25
2022-08-26T15:55:19.093Z,3.80
2022-08-26T15:57:49.347Z,4.28
2022-08-26T16:00:17.256Z,4.22
2022-08-26T16:02:44.382Z,3.97
2022-08-26T16:05:11.179Z,4.60
2022-08-26T16:07:37.992Z,4.45
2022-08-26T16:10:05.377Z,5.03
2022-08-26T16:12:32.464Z,5.35
2022-08-26T16:14:59.506Z,5.50
2022-08-26T16:17:26.276Z,5.60
2022-08-26T16:19:53.031Z,5.43
2022-08-26T16:22:20.093Z,5.22
2022-08-26T16:24:49.248Z,5.15
2022-08-26T16:27:16.191Z,4.88
2022-08-26T16:29:43.114Z,6.03
2022-08-26T16:32:09.937Z,4.95
2022-08-26T16:34:36.670Z,5.13
2022-08-26T16:37:04.348Z,4.85
2022-08-26T16:39:31.274Z,4.90
2022-08-26T16:41:58.348Z,4.80
2022-08-26T16:44:28.038Z,5.25
2022-08-26T16:46:58.587Z,5.50
2022-08-26T16:49:25.618Z,5.57
2022-08-26T16:51:52.690Z,5.43
2022-08-26T16:54:19.509Z,4.78
2022-08-26T16:56:46.255Z,5.05
2022-08-26T16:59:13.554Z,4.97
2022-08-26T17:01:40.432Z,4.57
2022-08-26T17:04:07.535Z,4.40
2022-08-26T17:06:34.577Z,4.35
2022-08-26T17:09:01.452Z,4.53
2022-08-26T17:11:28.490Z,4.72
2022-08-26T17:13:55.320Z,5.38
2022-08-26T17:16:26.701Z,4.65
2022-08-26T17:18:56.156Z,4.32
2022-08-26T17:21:24.061Z,4.63
2022-08-26T17:23:51.847Z,4.43
2022-08-26T17:26:18.606Z,4.28
2022-08-26T17:28:45.463Z,4.05
2022-08-26T17:31:13.229Z,4.97
2022-08-26T17:33:41.197Z,4.28
2022-08-26T17:36:09.545Z,4.65
2022-08-26T17:38:38.008Z,4.80
2022-08-26T17:41:12.940Z,4.80
2022-08-26T17:43:40.210Z,4.80
2022-08-26T17:46:09.576Z,4.90
2022-08-26T17:48:38.243Z,4.80
2022-08-26T17:51:11.142Z,4.68
2022-08-26T17:53:38.697Z,5.10
2022-08-26T17:56:16.395Z,4.68
2022-08-26T17:58:51.417Z,4.80
2022-08-26T18:01:20.588Z,4.78
2022-08-26T18:03:47.941Z,4.55
2022-08-26T18:06:15.290Z,5.15
2022-08-26T18:08:42.575Z,5.07
2022-08-26T18:11:11.439Z,5.13
2022-08-26T18:13:38.982Z,5.40
2022-08-26T18:16:14.632Z,5.45
2022-08-26T18:18:42.280Z,5.18
2022-08-26T18:21:18.083Z,5.55
2022-08-26T18:23:46.611Z,5.40
2022-08-26T18:26:31.963Z,5.07
2022-08-26T18:28:59.681Z,6.20
2022-08-26T18:31:27.142Z,8.10
2022-08-26T18:33:54.282Z,7.05
2022-08-26T18:36:29.966Z,6.90
2022-08-26T18:38:57.522Z,6.43
2022-08-26T18:41:27.480Z,5.72
2022-08-26T18:43:54.866Z,5.32
2022-08-26T18:46:25.172Z,5.70
2022-08-26T18:48:55.190Z,6.00
2022-08-26T18:51:33.280Z,5.70
2022-08-26T18:54:02.548Z,5.30
2022-08-26T18:56:30.603Z,5.78
2022-08-26T18:58:59.020Z,5.40
2022-08-26T19:01:27.887Z,5.15
2022-08-26T19:04:00.034Z,5.10
2022-08-26T19:06:28.903Z,4.82
2022-08-26T19:08:55.830Z,6.18
2022-08-26T19:11:31.538Z,6.38
2022-08-26T19:13:58.865Z,6.65
2022-08-26T19:16:27.758Z,5.80
2022-08-26T19:18:55.839Z,6.65
2022-08-26T19:21:23.507Z,6.75
2022-08-26T19:23:50.859Z,7.03
2022-08-26T19:26:18.541Z,6.97
2022-08-26T19:28:46.018Z,6.80
2022-08-26T19:31:13.065Z,7.57
2022-08-26T19:33:43.121Z,7.95
2022-08-26T19:36:16.267Z,7.88
2022-08-26T19:38:45.241Z,8.65
2022-08-26T19:41:15.200Z,8.15
2022-08-26T19:43:42.943Z,8.90
2022-08-26T19:46:13.409Z,7.65
2022-08-26T19:48:44.391Z,7.32
2022-08-26T19:51:20.902Z,6.53
2022-08-26T19:53:49.331Z,6.32
2022-08-26T19:56:16.846Z,4.68
2022-08-26T19:58:44.613Z,4.57
2022-08-26T20:01:12.496Z,4.38
2022-08-26T20:03:41.321Z,3.58
2022-08-26T20:06:10.911Z,3.42
2022-08-26T20:08:39.835Z,3.10
2022-08-26T20:11:11.167Z,3.25
2022-08-26T20:13:40.191Z,2.38
2022-08-26T20:16:08.236Z,6.35
2022-08-26T20:18:54.012Z,6.78
2022-08-26T20:21:27.154Z,5.03
2022-08-26T20:23:59.095Z,5.57
2022-08-26T20:26:28.301Z,4.90
2022-08-26T20:28:55.896Z,4.70
2022-08-26T20:31:24.274Z,5.85
2022-08-26T20:33:51.911Z,5.75
2022-08-26T20:36:21.201Z,6.15
2022-08-26T20:38:49.723Z,6.00
2022-08-26T20:41:18.667Z,7.05
2022-08-26T20:43:47.130Z,7.43
2022-08-26T20:46:18.035Z,7.15
2022-08-26T20:48:49.979Z,7.63
2022-08-26T20:51:18.053Z,7.38
2022-08-26T20:53:45.446Z,7.32
2022-08-26T20:56:14.396Z,6.78
2022-08-26T20:58:42.029Z,7.35
2022-08-26T21:01:16.954Z,6.85
2022-08-26T21:03:43.808Z,6.53
2022-08-26T21:06:10.639Z,7.35
2022-08-26T21:08:42.519Z,6.85
2022-08-26T21:11:11.614Z,5.80
2022-08-26T21:13:48.572Z,6.80
2022-08-26T21:16:26.363Z,6.63
2022-08-26T21:18:53.184Z,6.57
2022-08-26T21:21:25.205Z,6.75
2022-08-26T21:23:52.318Z,5.18
2022-08-26T21:26:19.275Z,5.97
2022-08-26T21:28:46.429Z,6.15
2022-08-26T21:31:16.972Z,5.82
2022-08-26T21:33:44.537Z,6.00
2022-08-26T21:36:13.158Z,6.28
2022-08-26T21:38:41.124Z,6.03
2022-08-26T21:41:19.895Z,6.22
2022-08-26T21:43:48.601Z,6.88
2022-08-26T21:46:18.920Z,6.32
2022-08-26T21:49:07.945Z,6.13
2022-08-26T21:51:41.838Z,5.80
2022-08-26T21:54:11.385Z,5.82
2022-08-26T21:56:44.149Z,5.95
2022-08-26T21:59:11.254Z,6.65
2022-08-26T22:01:38.271Z,5.53
2022-08-26T22:04:07.157Z,6.30
2022-08-26T22:06:39.223Z,5.82
2022-08-26T22:09:06.085Z,6.30
2022-08-26T22:11:32.882Z,6.57
2022-08-26T22:13:59.672Z,6.13
2022-08-26T22:16:28.768Z,6.00
2022-08-26T22:18:55.742Z,6.63
2022-08-26T22:21:24.546Z,6.55
2022-08-26T22:23:51.923Z,6.70
2022-08-26T22:26:27.298Z,6.90
2022-08-26T22:28:55.619Z,7.25
2022-08-26T22:31:29.063Z,6.55
2022-08-26T22:34:11.791Z,6.43
2022-08-26T22:36:43.648Z,6.82
2022-08-26T22:39:13.829Z,7.13
2022-08-26T22:41:42.099Z,7.00
2022-08-26T22:44:10.667Z,7.03
2022-08-26T22:46:38.650Z,7.35
2022-08-26T22:49:07.567Z,6.97
2022-08-26T22:51:34.636Z,6.97
2022-08-26T22:54:01.630Z,6.53
2022-08-26T22:56:28.426Z,6.95
2022-08-26T22:58:55.174Z,6.80
2022-08-26T23:01:22.229Z,7.43
2022-08-26T23:03:49.157Z,6.45
2022-08-26T23:06:15.986Z,6.40
2022-08-26T23:08:45.283Z,7.13
2022-08-26T23:11:13.654Z,6.90
2022-08-26T23:13:41.085Z,6.32
2022-08-26T23:16:11.113Z,6.88
2022-08-26T23:18:40.037Z,6.20
2022-08-26T23:21:07.322Z,6.50
2022-08-26T23:23:35.377Z,6.55
2022-08-26T23:26:05.951Z,6.22
2022-08-26T23:28:34.101Z,6.28
2022-08-26T23:31:00.883Z,6.15
2022-08-26T23:33:47.631Z,6.53
2022-08-26T23:36:17.988Z,5.70
2022-08-26T23:38:52.354Z,5.82
2022-08-26T23:41:22.450Z,6.53
2022-08-26T23:43:50.020Z,6.18
2022-08-26T23:46:17.765Z,6.32
2022-08-26T23:48:45.023Z,6.45
2022-08-26T23:51:30.646Z,6.85
2022-08-26T23:53:57.992Z,7.35
2022-08-26T23:56:25.570Z,6.70
2022-08-26T23:58:54.017Z,6.78
